createdAt,value
2022-08-05T00:02:27.211Z,3.50
2022-08-05T00:04:56.128Z,3.08
2022-08-05T00:07:58.762Z,3.40
2022-08-05T00:10:10.432Z,3.30
2022-08-05T00:12:55.687Z,3.83
2022-08-05T00:15:58.039Z,3.88
2022-08-05T00:18:09.627Z,3.65
2022-08-05T00:20:48.966Z,3.45
2022-08-05T00:23:15.555Z,3.38
2022-08-05T00:25:45.886Z,3.90
2022-08-05T00:28:13.487Z,3.90
2022-08-05T00:30:41.238Z,4.38
2022-08-05T00:34:42.246Z,3.65
2022-08-05T00:36:16.607Z,3.55
2022-08-05T00:38:44.706Z,3.50
2022-08-05T00:41:11.561Z,3.60
2022-08-05T00:43:47.173Z,3.65
2022-08-05T00:46:16.251Z,3.47
2022-08-05T00:48:51.530Z,3.15
2022-08-05T00:51:50.609Z,3.92
2022-08-05T00:54:06.211Z,3.70
2022-08-05T00:56:32.770Z,3.83
2022-08-05T00:59:00.361Z,3.90
2022-08-05T01:01:42.877Z,3.80
2022-08-05T01:04:14.036Z,3.50
2022-08-05T01:06:48.471Z,3.80
2022-08-05T01:09:19.857Z,3.30
2022-08-05T01:14:27.776Z,4.20
2022-08-05T01:17:05.255Z,3.53
2022-08-05T01:20:01.405Z,3.60
2022-08-05T01:23:13.611Z,3.58
2022-08-05T01:26:12.916Z,3.60
2022-08-05T01:28:53.139Z,3.28
2022-08-05T01:31:52.212Z,3.30
2022-08-05T01:34:26.754Z,3.60
2022-08-05T01:37:24.721Z,3.30
2022-08-05T01:39:58.907Z,3.38
2022-08-05T01:42:27.856Z,3.30
2022-08-05T01:44:56.955Z,3.20
2022-08-05T01:50:15.057Z,3.40
2022-08-05T01:52:44.380Z,3.33
2022-08-05T01:55:14.730Z,3.40
2022-08-05T01:58:11.072Z,3.50
2022-08-05T02:00:33.557Z,3.35
2022-08-05T02:03:29.089Z,3.28
2022-08-05T02:06:03.452Z,3.05
2022-08-05T02:08:58.654Z,3.10
2022-08-05T02:11:32.919Z,3.10
2022-08-05T02:14:12.550Z,3.30
2022-08-05T02:16:44.011Z,3.40
2022-08-05T02:19:34.145Z,2.90
2022-08-05T02:22:27.316Z,2.60
2022-08-05T02:25:01.954Z,2.80
2022-08-05T02:27:59.830Z,3.00
2022-08-05T02:30:19.700Z,3.03
2022-08-05T02:32:51.212Z,2.80
2022-08-05T02:35:27.776Z,3.08
2022-08-05T02:37:56.680Z,3.33
2022-08-05T02:40:27.538Z,3.33
2022-08-05T02:42:56.339Z,2.95
2022-08-05T02:45:25.270Z,2.88
2022-08-05T02:48:06.555Z,3.20
2022-08-05T02:50:43.636Z,2.97
2022-08-05T02:53:16.150Z,2.95
2022-08-05T02:55:54.856Z,3.30
2022-08-05T02:58:27.355Z,2.92
2022-08-05T03:00:57.051Z,2.80
2022-08-05T03:03:24.051Z,2.90
2022-08-05T03:06:56.940Z,3.17
2022-08-05T03:08:42.634Z,2.90
2022-08-05T03:14:13.362Z,2.90
2022-08-05T03:16:40.547Z,3.17
2022-08-05T03:19:17.373Z,3.00
2022-08-05T03:21:53.873Z,3.10
2022-08-05T03:24:27.577Z,3.13
2022-08-05T03:26:56.496Z,3.28
2022-08-05T03:29:24.067Z,3.13
2022-08-05T03:31:56.745Z,3.22
2022-08-05T03:34:28.365Z,3.88
2022-08-05T03:36:55.435Z,3.17
2022-08-05T03:39:27.153Z,3.70
2022-08-05T03:41:56.128Z,3.30
2022-08-05T03:44:23.512Z,3.63
2022-08-05T03:46:50.072Z,3.30
2022-08-05T03:49:16.628Z,3.58
2022-08-05T03:52:37.864Z,3.90
2022-08-05T03:55:50.796Z,3.22
2022-08-05T03:57:42.521Z,3.53
2022-08-05T04:00:16.038Z,3.33
2022-08-05T04:02:57.685Z,4.15
2022-08-05T04:05:33.280Z,3.83
2022-08-05T04:08:29.713Z,3.60
2022-08-05T04:10:53.354Z,3.42
2022-08-05T04:13:21.685Z,3.28
2022-08-05T04:16:02.740Z,3.70
2022-08-05T04:18:32.242Z,3.85
2022-08-05T04:21:02.046Z,3.80
2022-08-05T04:24:05.850Z,4.10
2022-08-05T04:26:17.639Z,4.05
2022-08-05T04:28:50.982Z,3.60
2022-08-05T04:31:19.348Z,4.00
2022-08-05T04:34:17.375Z,3.60
2022-08-05T04:36:46.610Z,3.92
2022-08-05T04:39:18.153Z,4.15
2022-08-05T04:41:45.814Z,4.22
2022-08-05T04:44:14.662Z,4.13
2022-08-05T04:46:47.592Z,4.40
2022-08-05T04:49:15.263Z,3.70
2022-08-05T04:51:44.152Z,3.80
2022-08-05T04:54:12.170Z,4.50
2022-08-05T04:56:39.189Z,4.22
2022-08-05T04:59:21.924Z,4.25
2022-08-05T05:02:06.899Z,4.65
2022-08-05T05:04:47.922Z,4.25
2022-08-05T05:07:17.655Z,4.30
2022-08-05T05:09:45.510Z,4.32
2022-08-05T05:12:12.435Z,4.80
2022-08-05T05:14:49.494Z,4.03
2022-08-05T05:17:23.383Z,4.45
2022-08-05T05:19:53.305Z,4.05
2022-08-05T05:22:23.571Z,4.15
2022-08-05T05:24:56.757Z,4.28
2022-08-05T05:27:41.527Z,4.10
2022-08-05T05:30:29.720Z,3.97
2022-08-05T05:33:00.367Z,4.25
2022-08-05T05:35:34.345Z,4.18
2022-08-05T05:38:13.277Z,4.90
2022-08-05T05:40:49.453Z,4.45
2022-08-05T05:43:22.217Z,4.05
2022-08-05T05:46:05.223Z,4.35
2022-08-05T05:48:34.554Z,4.25
2022-08-05T05:51:14.784Z,4.22
2022-08-05T05:53:46.113Z,4.10
2022-08-05T05:56:31.660Z,3.85
2022-08-05T05:58:58.646Z,3.78
2022-08-05T06:01:36.949Z,3.70
2022-08-05T06:04:06.242Z,4.18
2022-08-05T06:06:34.862Z,3.38
2022-08-05T06:09:05.666Z,3.53
2022-08-05T06:11:34.583Z,3.85
2022-08-05T06:14:02.125Z,4.00
2022-08-05T06:16:32.701Z,4.20
2022-08-05T06:19:06.016Z,4.20
2022-08-05T06:21:36.958Z,4.65
2022-08-05T06:24:11.708Z,4.37
2022-08-05T06:26:51.478Z,4.72
2022-08-05T06:29:25.349Z,4.82
2022-08-05T06:32:21.304Z,4.72
2022-08-05T06:34:53.442Z,5.15
2022-08-05T06:37:52.261Z,4.35
2022-08-05T06:40:11.783Z,5.10
2022-08-05T06:42:39.789Z,4.82
2022-08-05T06:45:08.796Z,4.38
2022-08-05T06:48:47.060Z,3.90
2022-08-05T06:50:23.629Z,4.40
2022-08-05T06:52:58.827Z,4.45
2022-08-05T06:55:36.993Z,3.60
2022-08-05T06:58:30.098Z,4.20
2022-08-05T07:00:51.170Z,3.95
2022-08-05T07:03:18.246Z,4.18
2022-08-05T07:05:46.327Z,4.30
2022-08-05T07:08:13.422Z,4.35
2022-08-05T07:10:53.201Z,3.60
2022-08-05T07:13:58.096Z,2.92
2022-08-05T07:18:01.492Z,3.38
2022-08-05T07:22:28.154Z,3.15
2022-08-05T07:25:22.717Z,3.20
2022-08-05T07:27:58.741Z,3.53
2022-08-05T07:30:33.584Z,3.22
2022-08-05T07:33:05.014Z,3.30
2022-08-05T07:36:02.809Z,3.13
2022-08-05T07:38:32.412Z,3.30
2022-08-05T07:42:09.594Z,3.78
2022-08-05T07:43:56.290Z,3.75
2022-08-05T07:46:27.469Z,3.53
2022-08-05T07:49:04.306Z,3.72
2022-08-05T07:51:40.566Z,3.55
2022-08-05T07:54:10.104Z,3.50
2022-08-05T07:57:01.450Z,3.00
2022-08-05T07:59:38.608Z,3.47
2022-08-05T08:02:10.681Z,3.40
2022-08-05T08:04:43.041Z,3.45
2022-08-05T08:07:11.962Z,3.33
2022-08-05T08:09:38.565Z,3.13
2022-08-05T08:12:13.615Z,3.03
2022-08-05T08:14:46.805Z,3.20
2022-08-05T08:17:16.001Z,3.90
2022-08-05T08:20:22.727Z,3.10
2022-08-05T08:22:30.783Z,3.05
2022-08-05T08:25:03.270Z,3.38
2022-08-05T08:27:47.437Z,3.50
2022-08-05T08:30:19.103Z,3.35
2022-08-05T08:32:57.027Z,3.08
2022-08-05T08:35:26.635Z,3.28
2022-08-05T08:37:56.316Z,3.15
2022-08-05T08:40:23.822Z,3.53
2022-08-05T08:42:53.009Z,3.15
2022-08-05T08:45:26.552Z,3.13
2022-08-05T08:48:10.445Z,3.38
2022-08-05T08:51:23.311Z,3.20
2022-08-05T08:53:37.030Z,3.00
2022-08-05T08:56:06.252Z,3.03
2022-08-05T08:58:43.475Z,3.10
2022-08-05T09:03:55.283Z,4.68
2022-08-05T09:06:28.116Z,3.83
2022-08-05T09:08:58.639Z,3.13
2022-08-05T09:11:53.485Z,3.38
2022-08-05T09:14:58.424Z,3.08
2022-08-05T09:17:00.814Z,3.28
2022-08-05T09:19:28.010Z,3.22
2022-08-05T09:22:17.749Z,3.05
2022-08-05T09:25:23.818Z,3.00
2022-08-05T09:28:04.025Z,3.27
2022-08-05T09:30:34.586Z,2.72
2022-08-05T09:33:02.364Z,2.97
2022-08-05T09:35:29.451Z,3.20
2022-08-05T09:38:16.825Z,3.08
2022-08-05T09:40:52.689Z,2.55
2022-08-05T09:43:41.887Z,2.72
2022-08-05T09:46:28.100Z,2.90
2022-08-05T09:49:07.557Z,2.60
2022-08-05T09:51:49.386Z,2.88
2022-08-05T09:54:16.105Z,3.03
2022-08-05T09:56:51.833Z,2.70
2022-08-05T09:59:24.151Z,2.70
2022-08-05T10:01:58.308Z,2.70
2022-08-05T10:04:35.921Z,2.80
2022-08-05T10:07:19.623Z,2.30
2022-08-05T10:10:04.087Z,2.42
2022-08-05T10:12:55.368Z,2.60
2022-08-05T10:18:13.873Z,2.25
2022-08-05T10:20:48.378Z,2.85
2022-08-05T10:23:34.048Z,2.50
2022-08-05T10:26:14.165Z,2.40
2022-08-05T10:28:43.888Z,2.92
2022-08-05T10:32:54.721Z,2.65
2022-08-05T10:34:00.215Z,2.83
2022-08-05T10:36:27.322Z,2.63
2022-08-05T10:39:10.555Z,2.55
2022-08-05T10:42:04.338Z,2.45
2022-08-05T10:44:32.663Z,2.67
2022-08-05T10:46:59.240Z,2.65
2022-08-05T10:49:33.310Z,2.70
2022-08-05T10:52:03.205Z,2.40
2022-08-05T10:55:10.237Z,2.58
2022-08-05T10:57:44.699Z,2.63
2022-08-05T11:00:20.512Z,2.55
2022-08-05T11:03:23.312Z,2.65
2022-08-05T11:06:16.234Z,4.13
2022-08-05T11:09:16.491Z,2.40
2022-08-05T11:11:53.243Z,2.65
2022-08-05T11:14:57.550Z,2.80
2022-08-05T11:17:59.162Z,2.60
2022-08-05T11:20:41.478Z,2.40
2022-08-05T11:24:02.274Z,2.75
2022-08-05T11:26:32.126Z,2.70
2022-08-05T11:29:12.271Z,2.85
2022-08-05T11:31:56.609Z,2.60
2022-08-05T11:34:37.807Z,2.83
2022-08-05T11:37:06.076Z,2.75
2022-08-05T11:40:00.255Z,2.65
2022-08-05T11:42:37.957Z,2.75
2022-08-05T11:45:14.369Z,3.00
2022-08-05T11:47:54.885Z,2.95
2022-08-05T11:50:22.564Z,2.40
2022-08-05T11:52:52.057Z,2.58
2022-08-05T11:55:21.060Z,2.63
2022-08-05T11:58:09.175Z,2.50
2022-08-05T12:00:38.236Z,3.08
2022-08-05T12:03:28.726Z,2.63
2022-08-05T12:06:06.598Z,2.50
2022-08-05T12:08:51.195Z,2.28
2022-08-05T12:11:28.354Z,2.67
2022-08-05T12:14:10.985Z,2.75
2022-08-05T12:16:45.530Z,2.50
2022-08-05T12:20:27.272Z,2.38
2022-08-05T12:22:01.598Z,2.70
2022-08-05T12:24:28.287Z,2.45
2022-08-05T12:26:56.974Z,2.75
2022-08-05T12:29:25.728Z,2.70
2022-08-05T12:31:57.676Z,2.65
2022-08-05T12:34:33.551Z,2.80
2022-08-05T12:37:10.757Z,2.42
2022-08-05T12:39:41.020Z,2.63
2022-08-05T12:42:14.490Z,2.60
2022-08-05T12:44:42.201Z,2.90
2022-08-05T12:47:12.722Z,2.50
2022-08-05T12:50:04.652Z,2.63
2022-08-05T12:52:39.579Z,2.60
2022-08-05T12:55:22.951Z,2.80
2022-08-05T12:58:49.407Z,2.50
2022-08-05T13:02:01.159Z,2.60
2022-08-05T13:03:41.475Z,2.47
2022-08-05T13:06:10.523Z,2.38
2022-08-05T13:08:38.723Z,2.95
2022-08-05T13:11:07.814Z,2.70
2022-08-05T13:14:04.725Z,2.65
2022-08-05T13:16:27.965Z,2.58
2022-08-05T13:18:58.714Z,2.72
2022-08-05T13:23:55.391Z,2.42
2022-08-05T13:26:29.887Z,2.88
2022-08-05T13:28:57.339Z,2.60
2022-08-05T13:32:03.721Z,2.70
2022-08-05T13:34:24.219Z,2.70
2022-08-05T13:36:53.405Z,2.50
2022-08-05T13:40:13.041Z,3.05
2022-08-05T13:42:07.013Z,2.40
2022-08-05T13:44:34.668Z,2.40
2022-08-05T13:47:04.971Z,2.30
2022-08-05T13:49:36.000Z,2.58
2022-08-05T13:52:12.150Z,2.60
2022-08-05T13:54:39.417Z,2.75
2022-08-05T13:57:08.811Z,2.60
2022-08-05T13:59:38.022Z,2.45
2022-08-05T14:02:26.694Z,2.65
2022-08-05T14:05:12.054Z,2.97
2022-08-05T14:08:00.206Z,2.30
2022-08-05T14:10:31.327Z,2.90
2022-08-05T14:12:59.547Z,2.63
2022-08-05T14:16:08.115Z,2.13
2022-08-05T14:18:17.316Z,2.75
2022-08-05T14:20:46.827Z,2.30
2022-08-05T14:23:14.740Z,2.47
2022-08-05T14:25:53.813Z,2.63
2022-08-05T14:28:27.006Z,2.60
2022-08-05T14:30:54.538Z,2.58
2022-08-05T14:33:22.831Z,2.60
2022-08-05T14:35:51.878Z,2.53
2022-08-05T14:38:32.683Z,2.78
2022-08-05T14:41:06.296Z,2.30
2022-08-05T14:44:02.272Z,2.78
2022-08-05T14:46:29.924Z,2.50
2022-08-05T14:48:59.687Z,2.80
2022-08-05T14:51:34.081Z,2.72
2022-08-05T14:54:06.888Z,2.90
2022-08-05T14:56:47.497Z,2.88
2022-08-05T14:59:14.743Z,2.60
2022-08-05T15:01:48.114Z,2.72
2022-08-05T15:04:16.770Z,2.58
2022-08-05T15:06:49.505Z,2.67
2022-08-05T15:09:51.287Z,2.80
2022-08-05T15:12:08.982Z,2.63
2022-08-05T15:14:48.025Z,2.60
2022-08-05T15:20:05.410Z,2.80
2022-08-05T15:22:32.462Z,2.70
2022-08-05T15:24:59.261Z,2.28
2022-08-05T15:27:26.516Z,2.70
2022-08-05T15:29:59.019Z,2.47
2022-08-05T15:32:27.223Z,2.95
2022-08-05T15:34:55.437Z,2.70
2022-08-05T15:38:31.935Z,2.75
2022-08-05T15:41:01.109Z,2.70
2022-08-05T15:43:09.169Z,2.75
2022-08-05T15:45:45.691Z,2.85
2022-08-05T15:48:13.981Z,2.70
2022-08-05T15:50:43.619Z,2.88
2022-08-05T15:53:12.781Z,2.72
2022-08-05T15:56:02.091Z,2.60
2022-08-05T15:58:29.443Z,2.63
2022-08-05T16:01:11.537Z,2.80
2022-08-05T16:03:43.352Z,2.88
2022-08-05T16:06:11.397Z,4.22
2022-08-05T16:08:39.917Z,3.20
2022-08-05T16:11:07.317Z,2.90
2022-08-05T16:13:35.269Z,3.38
2022-08-05T16:16:03.536Z,2.60
2022-08-05T16:18:32.827Z,2.85
2022-08-05T16:21:04.226Z,2.53
2022-08-05T16:23:32.960Z,2.70
2022-08-05T16:26:18.505Z,2.80
2022-08-05T16:28:46.709Z,2.58
2022-08-05T16:31:13.407Z,2.20
2022-08-05T16:33:41.993Z,2.67
2022-08-05T16:36:09.140Z,2.58
2022-08-05T16:38:35.778Z,2.40
2022-08-05T16:42:12.043Z,2.10
2022-08-05T16:43:49.424Z,2.38
2022-08-05T16:46:24.168Z,2.33
2022-08-05T16:48:51.336Z,2.30
2022-08-05T16:51:17.898Z,2.15
2022-08-05T16:54:05.064Z,2.30
2022-08-05T16:56:33.815Z,2.70
2022-08-05T16:59:07.898Z,2.47
2022-08-05T17:01:54.541Z,2.45
2022-08-05T17:04:24.153Z,2.20
2022-08-05T17:06:55.354Z,2.28
2022-08-05T17:09:23.034Z,2.72
2022-08-05T17:11:52.363Z,2.80
2022-08-05T17:14:34.055Z,2.53
2022-08-05T17:17:02.619Z,2.47
2022-08-05T17:19:29.284Z,2.63
2022-08-05T17:21:57.313Z,2.78
2022-08-05T17:24:35.149Z,2.85
2022-08-05T17:27:09.093Z,3.00
2022-08-05T17:29:41.254Z,2.83
2022-08-05T17:32:17.343Z,2.88
2022-08-05T17:34:47.647Z,2.58
2022-08-05T17:37:35.960Z,2.78
2022-08-05T17:40:02.777Z,2.83
2022-08-05T17:42:32.469Z,2.85
2022-08-05T17:45:17.923Z,2.70
2022-08-05T17:47:52.909Z,2.90
2022-08-05T17:50:27.808Z,2.95
2022-08-05T17:52:55.837Z,2.75
2022-08-05T17:55:27.287Z,3.15
2022-08-05T17:58:02.063Z,3.15
2022-08-05T18:00:29.585Z,3.22
2022-08-05T18:02:56.586Z,2.95
2022-08-05T18:05:23.955Z,3.30
2022-08-05T18:07:54.926Z,3.20
2022-08-05T18:10:23.676Z,2.92
2022-08-05T18:12:50.260Z,3.47
2022-08-05T18:15:17.182Z,3.40
2022-08-05T18:17:59.068Z,3.42
2022-08-05T18:20:32.038Z,3.70
2022-08-05T18:23:11.206Z,3.30
2022-08-05T18:25:45.168Z,3.45
2022-08-05T18:28:17.476Z,3.95
2022-08-05T18:30:51.272Z,2.97
2022-08-05T18:33:22.773Z,3.22
2022-08-05T18:36:04.911Z,3.35
2022-08-05T18:38:36.885Z,3.25
2022-08-05T18:41:56.359Z,3.60
2022-08-05T18:43:54.102Z,3.40
2022-08-05T18:46:20.822Z,3.63
2022-08-05T18:48:53.802Z,3.25
2022-08-05T18:52:05.152Z,3.05
2022-08-05T18:54:31.206Z,3.63
2022-08-05T18:57:00.876Z,3.75
2022-08-05T18:59:44.279Z,3.20
2022-08-05T19:02:27.166Z,3.35
2022-08-05T19:05:02.560Z,3.50
2022-08-05T19:07:45.925Z,3.10
2022-08-05T19:10:17.295Z,3.23
2022-08-05T19:12:43.955Z,3.70
2022-08-05T19:15:57.602Z,3.40
2022-08-05T19:18:09.365Z,3.55
2022-08-05T19:20:41.306Z,3.33
2022-08-05T19:24:03.271Z,3.78
2022-08-05T19:26:01.982Z,3.65
2022-08-05T19:28:33.754Z,4.22
2022-08-05T19:31:01.243Z,3.75
2022-08-05T19:36:02.712Z,3.63
2022-08-05T19:38:32.650Z,3.75
2022-08-05T19:40:59.238Z,4.18
2022-08-05T19:44:05.578Z,3.55
2022-08-05T19:46:16.861Z,3.50
2022-08-05T19:48:56.421Z,3.75
2022-08-05T19:52:05.522Z,3.78
2022-08-05T19:54:21.754Z,3.60
2022-08-05T19:56:54.505Z,3.58
2022-08-05T19:59:53.720Z,3.75
2022-08-05T20:02:07.680Z,3.95
2022-08-05T20:04:34.341Z,3.30
2022-08-05T20:07:01.023Z,3.80
2022-08-05T20:09:28.805Z,3.78
2022-08-05T20:12:15.375Z,3.60
2022-08-05T20:14:41.967Z,4.00
2022-08-05T20:17:09.958Z,3.90
2022-08-05T20:19:42.996Z,3.75
2022-08-05T20:22:09.813Z,4.28
2022-08-05T20:24:36.447Z,3.80
2022-08-05T20:27:04.774Z,3.67
2022-08-05T20:29:38.270Z,4.00
2022-08-05T20:32:06.602Z,3.88
2022-08-05T20:34:33.296Z,3.72
2022-08-05T20:37:00.845Z,4.30
2022-08-05T20:39:36.648Z,3.95
2022-08-05T20:42:05.202Z,4.55
2022-08-05T20:44:33.241Z,4.10
2022-08-05T20:47:07.372Z,4.47
2022-08-05T20:49:39.336Z,3.72
2022-08-05T20:52:08.537Z,3.97
2022-08-05T20:54:43.610Z,4.93
2022-08-05T20:57:42.348Z,4.63
2022-08-05T21:00:20.813Z,4.15
2022-08-05T21:03:01.239Z,4.03
2022-08-05T21:05:38.085Z,4.78
2022-08-05T21:08:14.866Z,5.15
2022-08-05T21:10:49.006Z,4.72
2022-08-05T21:13:26.411Z,4.32
2022-08-05T21:16:03.707Z,4.22
2022-08-05T21:18:30.447Z,4.20
2022-08-05T21:20:57.859Z,4.68
2022-08-05T21:23:24.696Z,4.35
2022-08-05T21:25:51.527Z,4.38
2022-08-05T21:28:23.885Z,3.97
2022-08-05T21:30:50.703Z,4.50
2022-08-05T21:33:22.077Z,4.20
2022-08-05T21:35:58.436Z,5.88
2022-08-05T21:38:26.758Z,4.53
2022-08-05T21:40:53.687Z,4.97
2022-08-05T21:43:24.528Z,4.15
2022-08-05T21:45:57.573Z,4.47
2022-08-05T21:48:27.855Z,4.32
2022-08-05T21:50:55.293Z,4.70
2022-08-05T21:53:27.028Z,4.57
2022-08-05T21:56:04.428Z,4.50
2022-08-05T21:58:33.048Z,4.28
2022-08-05T22:01:00.388Z,4.75
2022-08-05T22:03:48.552Z,4.47
2022-08-05T22:06:15.762Z,4.22
2022-08-05T22:08:42.879Z,4.90
2022-08-05T22:11:12.028Z,4.63
2022-08-05T22:14:32.604Z,4.65
2022-08-05T22:16:51.068Z,4.85
2022-08-05T22:19:57.176Z,4.20
2022-08-05T22:22:02.430Z,4.55
2022-08-05T22:24:52.024Z,4.75
2022-08-05T22:28:10.621Z,4.20
2022-08-05T22:30:24.326Z,4.70
2022-08-05T22:32:50.830Z,4.60
2022-08-05T22:35:21.898Z,4.57
2022-08-05T22:37:58.478Z,4.50
2022-08-05T22:40:26.476Z,5.03
2022-08-05T22:42:58.176Z,4.60
2022-08-05T22:45:26.476Z,5.32
2022-08-05T22:47:56.956Z,5.00
2022-08-05T22:50:26.669Z,5.00
2022-08-05T22:52:55.274Z,5.20
2022-08-05T22:55:23.678Z,4.93
2022-08-05T22:57:51.213Z,4.68
2022-08-05T23:00:20.792Z,4.15
2022-08-05T23:02:49.025Z,4.20
2022-08-05T23:05:16.484Z,3.67
2022-08-05T23:07:45.120Z,4.30
2022-08-05T23:10:15.025Z,4.20
2022-08-05T23:12:43.915Z,3.90
2022-08-05T23:15:11.895Z,3.83
2022-08-05T23:18:02.396Z,3.72
2022-08-05T23:20:25.122Z,4.10
2022-08-05T23:22:52.810Z,4.05
2022-08-05T23:25:50.923Z,4.03
2022-08-05T23:28:09.913Z,3.60
2022-08-05T23:30:40.490Z,4.05
2022-08-05T23:33:22.367Z,4.57
2022-08-05T23:35:56.255Z,4.65
2022-08-05T23:38:24.243Z,4.60
2022-08-05T23:40:52.811Z,4.53
2022-08-05T23:43:25.321Z,4.70
2022-08-05T23:46:20.900Z,4.47
2022-08-05T23:49:01.023Z,4.03
2022-08-05T23:51:53.532Z,3.80
2022-08-05T23:54:36.425Z,3.80
2022-08-05T23:57:06.351Z,4.10
